Terminal Aerodrome Forecast
Issued by NWS

Home | Current Version | Previous Version | Text Only | Print | Product List | Glossary On
Versions: 1 2 3 4 5 6 7 8 9 10 11 12 13
000
FTUS44 KEPZ 301100
TAFLRU
TAF
KLRU 301129Z 3012/3112 34006KT P6SM FEW120
     FM301500 06010G17KT P6SM FEW070 FEW250
     FM301900 10011KT P6SM SCT070 SCT120 BKN250
     FM310200 13011KT P6SM VCSH SCT060 BKN120 BKN230=

USA.gov is the U.S. government's official web portal to all federal, state and local government web resources and services.